createdAt,value
2023-03-04T00:00:50.662Z,9.747477
2023-03-04T00:01:50.658Z,9.747473
2023-03-04T00:02:50.728Z,9.747644
2023-03-04T00:03:50.600Z,9.747561
2023-03-04T00:04:50.593Z,9.747626
2023-03-04T00:05:50.666Z,9.747533
2023-03-04T00:06:50.620Z,9.747533
2023-03-04T00:07:50.579Z,9.747478
2023-03-04T00:08:50.640Z,9.747455
2023-03-04T00:09:50.561Z,9.747431
2023-03-04T00:10:50.634Z,9.747430
2023-03-04T00:11:50.544Z,9.747466
2023-03-04T00:12:50.538Z,9.747460
2023-03-04T00:13:50.536Z,9.747503
2023-03-04T00:14:50.519Z,9.747381
2023-03-04T00:15:50.587Z,9.747373
2023-03-04T00:16:50.554Z,9.747372
2023-03-04T00:17:50.520Z,9.747430
2023-03-04T00:18:50.502Z,9.747328
2023-03-04T00:19:50.488Z,9.747478
2023-03-04T00:20:50.534Z,9.747415
2023-03-04T00:21:50.498Z,9.747415
2023-03-04T00:22:50.465Z,9.747439
2023-03-04T00:23:50.490Z,9.747306
2023-03-04T00:24:50.451Z,9.747329
2023-03-04T00:25:50.473Z,9.747301
2023-03-04T00:26:50.439Z,9.747243
2023-03-04T00:27:50.462Z,9.747287
2023-03-04T00:28:50.420Z,9.747344
2023-03-04T00:29:50.445Z,9.747326
2023-03-04T00:30:50.425Z,9.747086
2023-03-04T00:31:50.504Z,9.747232
2023-03-04T00:32:50.424Z,9.747317
2023-03-04T00:33:50.404Z,9.747091
2023-03-04T00:34:50.403Z,9.747419
2023-03-04T00:35:50.447Z,9.747399
2023-03-04T00:36:50.339Z,9.747431
2023-03-04T00:37:51.366Z,9.747330
2023-03-04T00:38:50.332Z,9.747369
2023-03-04T00:39:50.331Z,9.747363
2023-03-04T00:40:50.426Z,9.747384
2023-03-04T00:41:50.341Z,9.747380
2023-03-04T00:42:50.320Z,9.747277
2023-03-04T00:43:50.313Z,9.747428
2023-03-04T00:44:50.319Z,9.747458
2023-03-04T00:45:50.409Z,9.747482
2023-03-04T00:46:50.290Z,9.747413
2023-03-04T00:47:50.267Z,9.747362
2023-03-04T00:48:50.277Z,9.747454
2023-03-04T00:49:50.348Z,9.747451
2023-03-04T00:50:50.259Z,9.747444
2023-03-04T00:51:50.288Z,9.747439
2023-03-04T00:52:50.270Z,9.747389
2023-03-04T00:53:50.259Z,9.747391
2023-03-04T00:54:50.219Z,9.747462
2023-03-04T00:55:50.212Z,9.747528
2023-03-04T00:56:50.242Z,9.747389
2023-03-04T00:57:50.192Z,9.747498
2023-03-04T00:58:50.220Z,9.747306
2023-03-04T00:59:50.202Z,9.747434
2023-03-04T01:00:50.173Z,9.747427
2023-03-04T01:01:50.236Z,9.747228
2023-03-04T01:02:50.187Z,9.747301
2023-03-04T01:03:50.186Z,9.747419
2023-03-04T01:04:50.146Z,9.747392
2023-03-04T01:05:50.128Z,9.747330
2023-03-04T01:06:50.192Z,9.747419
2023-03-04T01:07:50.126Z,9.747190
2023-03-04T01:08:50.129Z,9.747323
2023-03-04T01:09:50.145Z,9.747406
2023-03-04T01:10:50.111Z,9.747408
2023-03-04T01:11:50.124Z,9.747432
2023-03-04T01:12:50.079Z,9.747435
2023-03-04T01:13:50.181Z,9.747464
2023-03-04T01:14:50.080Z,9.747383
2023-03-04T01:15:50.083Z,9.747420
2023-03-04T01:16:50.156Z,9.747270
2023-03-04T01:17:50.113Z,9.747337
2023-03-04T01:18:50.024Z,9.747358
2023-03-04T01:19:50.030Z,9.747388
2023-03-04T01:20:50.090Z,9.747431
2023-03-04T01:21:50.143Z,9.747367
2023-03-04T01:22:50.014Z,9.747355
2023-03-04T01:23:50.038Z,9.747529
2023-03-04T01:24:50.023Z,9.747521
2023-03-04T01:25:50.029Z,9.747429
2023-03-04T01:26:49.986Z,9.747271
2023-03-04T01:27:49.984Z,9.747042
2023-03-04T01:28:49.989Z,9.747264
2023-03-04T01:29:49.956Z,9.747340
2023-03-04T01:30:49.967Z,9.747477
2023-03-04T01:31:49.990Z,9.747394
2023-03-04T01:32:49.932Z,9.747398
2023-03-04T01:33:49.928Z,9.747366
2023-03-04T01:34:49.925Z,9.747436
2023-03-04T01:35:49.946Z,9.747561
2023-03-04T01:36:49.925Z,9.747511
2023-03-04T01:37:49.892Z,9.747407
2023-03-04T01:38:49.883Z,9.747379
2023-03-04T01:39:49.879Z,9.747464
2023-03-04T01:40:49.867Z,9.747445
2023-03-04T01:41:49.908Z,9.747417
2023-03-04T01:42:49.875Z,9.747431
2023-03-04T01:43:49.839Z,9.747437
2023-03-04T01:44:49.865Z,9.747434
2023-03-04T01:45:49.943Z,9.747473
2023-03-04T01:46:49.870Z,9.747524
2023-03-04T01:47:49.844Z,9.747429
2023-03-04T01:48:49.818Z,9.747547
2023-03-04T01:49:49.862Z,9.747574
2023-03-04T01:50:49.800Z,9.747567
2023-03-04T01:51:49.826Z,9.747580
2023-03-04T01:52:49.777Z,9.747567
2023-03-04T01:53:49.770Z,9.747516
2023-03-04T01:54:49.771Z,9.747489
2023-03-04T01:55:49.795Z,9.747497
2023-03-04T01:56:49.820Z,9.747462
2023-03-04T01:57:49.786Z,9.747471
2023-03-04T01:58:50.761Z,9.747500
2023-03-04T01:59:49.728Z,9.747434
2023-03-04T02:00:49.736Z,9.747468
2023-03-04T02:01:49.804Z,9.747420
2023-03-04T02:02:49.710Z,9.747364
2023-03-04T02:03:49.769Z,9.747532
2023-03-04T02:04:49.731Z,9.747554
2023-03-04T02:05:49.723Z,9.747424
2023-03-04T02:06:49.766Z,9.747415
2023-03-04T02:07:49.683Z,9.747353
2023-03-04T02:08:49.667Z,9.747481
2023-03-04T02:09:49.660Z,9.747389
2023-03-04T02:10:49.704Z,9.747458
2023-03-04T02:11:49.682Z,9.747563
2023-03-04T02:12:49.626Z,9.747448
2023-03-04T02:13:49.625Z,9.747448
2023-03-04T02:14:49.633Z,9.747371
2023-03-04T02:15:49.701Z,9.747391
2023-03-04T02:16:49.627Z,9.747400
2023-03-04T02:17:49.594Z,9.747396
2023-03-04T02:18:49.586Z,9.747441
2023-03-04T02:19:49.566Z,9.747429
2023-03-04T02:20:49.581Z,9.747426
2023-03-04T02:21:49.591Z,9.747427
2023-03-04T02:22:49.562Z,9.747476
2023-03-04T02:23:49.548Z,9.747443
2023-03-04T02:24:49.560Z,9.747490
2023-03-04T02:25:49.553Z,9.747444
2023-03-04T02:26:49.591Z,9.747432
2023-03-04T02:27:49.564Z,9.747343
2023-03-04T02:28:49.524Z,9.747329
2023-03-04T02:29:49.488Z,9.747467
2023-03-04T02:30:49.534Z,9.747528
2023-03-04T02:31:49.520Z,9.747448
2023-03-04T02:32:49.461Z,9.747475
2023-03-04T02:33:50.495Z,9.747466
2023-03-04T02:34:49.484Z,9.747519
2023-03-04T02:35:49.531Z,9.747449
2023-03-04T02:36:49.469Z,9.747510
2023-03-04T02:37:49.447Z,9.747474
2023-03-04T02:38:49.426Z,9.747324
2023-03-04T02:39:49.471Z,9.747389
2023-03-04T02:40:49.526Z,9.747354
2023-03-04T02:41:49.505Z,9.747405
2023-03-04T02:42:49.448Z,9.747438
2023-03-04T02:43:49.398Z,9.747459
2023-03-04T02:44:49.434Z,9.747426
2023-03-04T02:45:49.409Z,9.747489
2023-03-04T02:46:49.485Z,9.747423
2023-03-04T02:47:49.441Z,9.747436
2023-03-04T02:48:49.419Z,9.747451
2023-03-04T02:49:49.353Z,9.747446
2023-03-04T02:50:49.347Z,9.747471
2023-03-04T02:51:49.340Z,9.747478
2023-03-04T02:52:49.378Z,9.747365
2023-03-04T02:53:49.340Z,9.747234
2023-03-04T02:54:49.347Z,9.747493
2023-03-04T02:55:49.322Z,9.747369
2023-03-04T02:56:49.307Z,9.747357
2023-03-04T02:57:49.317Z,9.747368
2023-03-04T02:58:49.281Z,9.747394
2023-03-04T02:59:49.356Z,9.747310
2023-03-04T03:00:49.290Z,9.747316
2023-03-04T03:01:49.338Z,9.747271
2023-03-04T03:02:49.343Z,9.747344
2023-03-04T03:03:49.275Z,9.747307
2023-03-04T03:04:49.281Z,9.747389
2023-03-04T03:05:49.237Z,9.747410
2023-03-04T03:06:49.221Z,9.747426
2023-03-04T03:07:49.244Z,9.747301
2023-03-04T03:08:49.269Z,9.747340
2023-03-04T03:09:49.230Z,9.747356
2023-03-04T03:10:50.229Z,9.747412
2023-03-04T03:11:49.211Z,9.747414
2023-03-04T03:12:49.215Z,9.747348
2023-03-04T03:13:49.225Z,9.747326
2023-03-04T03:14:49.222Z,9.747332
2023-03-04T03:15:50.222Z,9.747367
2023-03-04T03:16:50.205Z,9.747469
2023-03-04T03:17:49.202Z,9.747304
2023-03-04T03:18:49.170Z,9.747274
2023-03-04T03:19:49.139Z,9.747243
2023-03-04T03:20:49.143Z,9.747388
2023-03-04T03:21:49.175Z,9.747430
2023-03-04T03:22:49.147Z,9.747408
2023-03-04T03:23:49.111Z,9.747357
2023-03-04T03:24:49.136Z,9.747417
2023-03-04T03:25:49.121Z,9.747320
2023-03-04T03:26:49.098Z,9.747343
2023-03-04T03:27:49.133Z,9.747226
2023-03-04T03:28:49.082Z,9.747311
2023-03-04T03:29:49.083Z,9.747542
2023-03-04T03:30:49.085Z,9.747494
2023-03-04T03:31:49.113Z,9.747401
2023-03-04T03:32:49.083Z,9.747375
2023-03-04T03:33:49.017Z,9.747592
2023-03-04T03:34:49.041Z,9.747418
2023-03-04T03:35:49.052Z,9.747315
2023-03-04T03:36:49.030Z,9.747267
2023-03-04T03:37:49.047Z,9.747436
2023-03-04T03:38:48.994Z,9.747485
2023-03-04T03:39:49.724Z,9.747497
2023-03-04T03:40:48.978Z,9.747489
2023-03-04T03:41:48.985Z,9.747457
2023-03-04T03:42:49.091Z,9.747371
2023-03-04T03:43:48.946Z,9.747351
2023-03-04T03:44:48.942Z,9.747218
2023-03-04T03:45:48.955Z,9.747480
2023-03-04T03:46:48.941Z,9.747405
2023-03-04T03:47:48.962Z,9.747337
2023-03-04T03:48:48.901Z,9.747277
2023-03-04T03:49:48.923Z,9.747346
2023-03-04T03:50:48.878Z,9.747363
2023-03-04T03:51:48.952Z,9.747314
2023-03-04T03:52:48.967Z,9.747318
2023-03-04T03:53:48.862Z,9.747483
2023-03-04T03:54:48.893Z,9.747660
2023-03-04T03:55:48.869Z,9.747444
2023-03-04T03:56:48.853Z,9.747399
2023-03-04T03:57:48.894Z,9.747385
2023-03-04T03:58:48.822Z,9.747412
2023-03-04T03:59:48.821Z,9.747643
2023-03-04T04:00:48.814Z,9.747577
2023-03-04T04:01:48.942Z,9.747353
2023-03-04T04:02:48.977Z,9.747169
2023-03-04T04:03:48.793Z,9.747251
2023-03-04T04:04:48.781Z,9.747383
2023-03-04T04:05:48.768Z,9.747433
2023-03-04T04:06:48.769Z,9.747262
2023-03-04T04:07:48.798Z,9.747268
2023-03-04T04:08:48.827Z,9.747282
2023-03-04T04:09:48.741Z,9.747211
2023-03-04T04:10:48.746Z,9.747258
2023-03-04T04:11:48.796Z,9.747335
2023-03-04T04:12:48.948Z,9.747374
2023-03-04T04:13:48.717Z,9.747310
2023-03-04T04:14:48.719Z,9.747350
2023-03-04T04:15:48.698Z,9.747282
2023-03-04T04:16:48.792Z,9.747350
2023-03-04T04:17:48.731Z,9.747296
2023-03-04T04:18:49.690Z,9.747306
2023-03-04T04:19:48.674Z,9.747467
2023-03-04T04:20:48.685Z,9.747471
2023-03-04T04:21:48.713Z,9.747370
2023-03-04T04:22:48.674Z,9.747262
2023-03-04T04:23:48.650Z,9.747309
2023-03-04T04:24:48.635Z,9.747400
2023-03-04T04:25:48.636Z,9.747390
2023-03-04T04:26:48.661Z,9.747365
2023-03-04T04:27:48.654Z,9.747381
2023-03-04T04:28:48.596Z,9.747311
2023-03-04T04:29:48.590Z,9.747477
2023-03-04T04:30:48.728Z,9.747507
2023-03-04T04:31:48.702Z,9.747309
2023-03-04T04:32:48.603Z,9.747070
2023-03-04T04:33:48.561Z,9.747708
2023-03-04T04:34:48.557Z,9.747897
2023-03-04T04:35:48.588Z,9.747992
2023-03-04T04:36:48.579Z,9.747473
2023-03-04T04:37:48.591Z,9.747351
2023-03-04T04:38:48.529Z,9.747521
2023-03-04T04:39:48.528Z,9.747227
2023-03-04T04:40:48.503Z,9.747397
2023-03-04T04:41:48.556Z,9.747240
2023-03-04T04:42:48.537Z,9.747320
2023-03-04T04:43:48.508Z,9.747236
2023-03-04T04:44:48.516Z,9.747242
2023-03-04T04:45:48.508Z,9.747393
2023-03-04T04:46:48.467Z,9.747327
2023-03-04T04:47:49.543Z,9.747422
2023-03-04T04:48:48.467Z,9.747492
2023-03-04T04:49:48.467Z,9.747496
2023-03-04T04:50:48.458Z,9.747255
2023-03-04T04:51:48.432Z,9.747289
2023-03-04T04:52:48.489Z,9.747353
2023-03-04T04:53:48.427Z,9.747432
2023-03-04T04:54:48.438Z,9.747434
2023-03-04T04:55:48.406Z,9.747458
2023-03-04T04:56:48.397Z,9.747482
2023-03-04T04:57:48.459Z,9.747394
2023-03-04T04:58:48.376Z,9.747523
2023-03-04T04:59:48.372Z,9.747318
2023-03-04T05:00:48.390Z,9.747322
2023-03-04T05:01:48.427Z,9.747433
2023-03-04T05:02:48.400Z,9.747427
2023-03-04T05:03:48.478Z,9.747459
2023-03-04T05:04:48.336Z,9.747293
2023-03-04T05:05:48.327Z,9.747355
2023-03-04T05:06:48.325Z,9.747464
2023-03-04T05:07:48.349Z,9.747572
2023-03-04T05:08:48.377Z,9.747360
2023-03-04T05:09:48.313Z,9.747399
2023-03-04T05:10:48.323Z,9.747432
2023-03-04T05:11:48.297Z,9.747472
2023-03-04T05:12:48.315Z,9.747396
2023-03-04T05:13:49.284Z,9.747406
2023-03-04T05:14:48.277Z,9.747334
2023-03-04T05:15:48.302Z,9.747424
2023-03-04T05:16:48.260Z,9.747810
2023-03-04T05:17:48.309Z,9.747628
2023-03-04T05:18:48.237Z,9.747582
2023-03-04T05:19:48.232Z,9.747394
2023-03-04T05:20:48.227Z,9.747519
2023-03-04T05:21:48.227Z,9.747661
2023-03-04T05:22:48.284Z,9.747614
2023-03-04T05:23:48.217Z,9.747450
2023-03-04T05:24:48.221Z,9.747160
2023-03-04T05:25:48.186Z,9.747293
2023-03-04T05:26:48.226Z,9.747400
2023-03-04T05:27:48.189Z,9.747339
2023-03-04T05:28:48.165Z,9.747259
2023-03-04T05:29:48.222Z,9.747190
2023-03-04T05:30:48.225Z,9.747290
2023-03-04T05:31:48.195Z,9.747540
2023-03-04T05:32:48.147Z,9.747368
2023-03-04T05:33:48.433Z,9.747415
2023-03-04T05:34:48.283Z,9.747540
2023-03-04T05:35:48.156Z,9.747522
2023-03-04T05:36:48.111Z,9.747460
2023-03-04T05:37:48.306Z,9.747252
2023-03-04T05:38:48.094Z,9.747492
2023-03-04T05:39:48.094Z,9.747359
2023-03-04T05:40:48.089Z,9.747872
2023-03-04T05:41:48.070Z,9.747778
2023-03-04T05:42:48.094Z,9.747391
2023-03-04T05:43:48.046Z,9.747257
2023-03-04T05:44:48.037Z,9.747514
2023-03-04T05:45:48.029Z,9.747425
2023-03-04T05:46:48.122Z,9.747206
2023-03-04T05:47:48.089Z,9.747268
2023-03-04T05:48:48.041Z,9.747281
2023-03-04T05:49:48.034Z,9.747157
2023-03-04T05:50:47.996Z,9.747149
2023-03-04T05:51:48.045Z,9.747792
2023-03-04T05:52:48.008Z,9.747646
2023-03-04T05:53:48.055Z,9.747457
2023-03-04T05:54:47.977Z,9.747273
2023-03-04T05:55:48.006Z,9.747278
2023-03-04T05:56:47.968Z,9.747202
2023-03-04T05:57:47.950Z,9.747209
2023-03-04T05:58:47.982Z,9.747184
2023-03-04T05:59:47.925Z,9.747174
2023-03-04T06:00:48.006Z,9.747279
2023-03-04T06:01:47.925Z,9.747528
2023-03-04T06:02:47.974Z,9.747291
2023-03-04T06:03:48.045Z,9.747327
2023-03-04T06:04:47.883Z,9.747416
2023-03-04T06:05:47.881Z,9.747491
2023-03-04T06:06:47.873Z,9.747313
2023-03-04T06:07:47.866Z,9.747457
2023-03-04T06:08:47.894Z,9.747459
2023-03-04T06:09:47.849Z,9.747478
2023-03-04T06:10:47.862Z,9.747450
2023-03-04T06:11:47.823Z,9.747469
2023-03-04T06:12:47.820Z,9.747232
2023-03-04T06:13:47.932Z,9.747343
2023-03-04T06:14:47.822Z,9.747300
2023-03-04T06:15:47.805Z,9.747365
2023-03-04T06:16:47.784Z,9.747272
2023-03-04T06:17:47.846Z,9.747443
2023-03-04T06:18:47.836Z,9.747204
2023-03-04T06:19:47.767Z,9.747270
2023-03-04T06:20:47.771Z,9.747355
2023-03-04T06:21:47.765Z,9.747152
2023-03-04T06:22:47.755Z,9.747258
2023-03-04T06:23:47.792Z,9.747190
2023-03-04T06:24:47.745Z,9.747217
2023-03-04T06:25:47.766Z,9.747108
2023-03-04T06:26:47.730Z,9.747257
2023-03-04T06:27:49.740Z,9.747037
2023-03-04T06:28:47.718Z,9.747013
2023-03-04T06:29:47.716Z,9.747653
2023-03-04T06:30:47.990Z,9.747230
2023-03-04T06:31:47.849Z,9.747254
2023-03-04T06:32:47.704Z,9.747211
2023-03-04T06:33:47.688Z,9.747408
2023-03-04T06:34:47.663Z,9.747199
2023-03-04T06:35:47.732Z,9.747226
2023-03-04T06:36:47.693Z,9.747022
2023-03-04T06:37:47.689Z,9.746951
2023-03-04T06:38:47.679Z,9.747192
2023-03-04T06:39:47.645Z,9.747228
2023-03-04T06:40:47.616Z,9.747289
2023-03-04T06:41:47.597Z,9.747515
2023-03-04T06:42:47.657Z,9.747619
2023-03-04T06:43:47.617Z,9.747602
2023-03-04T06:44:47.578Z,9.747799
2023-03-04T06:45:47.586Z,9.747849
2023-03-04T06:46:47.575Z,9.747936
2023-03-04T06:47:47.562Z,9.747987
2023-03-04T06:48:47.613Z,9.747597
2023-03-04T06:49:47.580Z,9.747766
2023-03-04T06:50:47.530Z,9.747766
2023-03-04T06:51:47.531Z,9.747759
2023-03-04T06:52:47.579Z,9.747708
2023-03-04T06:53:47.537Z,9.747438
2023-03-04T06:54:47.508Z,9.747271
2023-03-04T06:55:47.498Z,9.747432
2023-03-04T06:56:47.516Z,9.747348
2023-03-04T06:57:48.565Z,9.747298
2023-03-04T06:58:48.533Z,9.747325
2023-03-04T06:59:47.471Z,9.747490
2023-03-04T07:00:47.561Z,9.747489
2023-03-04T07:01:47.475Z,9.747484
2023-03-04T07:02:47.477Z,9.747325
2023-03-04T07:03:47.565Z,9.747680
2023-03-04T07:04:47.460Z,9.747722
2023-03-04T07:05:47.427Z,9.747739
2023-03-04T07:06:47.462Z,9.747483
2023-03-04T07:07:47.465Z,9.747565
2023-03-04T07:08:47.474Z,9.747535
2023-03-04T07:09:47.388Z,9.747574
2023-03-04T07:10:47.432Z,9.747547
2023-03-04T07:11:48.378Z,9.747421
2023-03-04T07:12:47.365Z,9.747365
2023-03-04T07:13:47.401Z,9.747449
2023-03-04T07:14:47.408Z,9.747423
2023-03-04T07:15:47.393Z,9.747281
2023-03-04T07:16:47.383Z,9.747343
2023-03-04T07:17:47.345Z,9.747165
2023-03-04T07:18:47.440Z,9.747237
2023-03-04T07:19:47.322Z,9.747535
2023-03-04T07:20:47.306Z,9.747462
2023-03-04T07:21:47.357Z,9.747586
2023-03-04T07:22:47.319Z,9.747548
2023-03-04T07:23:47.417Z,9.747575
2023-03-04T07:24:47.351Z,9.747516
2023-03-04T07:25:47.301Z,9.747410
2023-03-04T07:26:47.325Z,9.747602
2023-03-04T07:27:47.270Z,9.747643
2023-03-04T07:28:47.304Z,9.747583
2023-03-04T07:29:47.237Z,9.747671
2023-03-04T07:30:47.291Z,9.747518
2023-03-04T07:31:47.265Z,9.747566
2023-03-04T07:32:47.286Z,9.747467
2023-03-04T07:33:47.230Z,9.747604
2023-03-04T07:34:47.233Z,9.747458
2023-03-04T07:35:47.250Z,9.747471
2023-03-04T07:36:47.240Z,9.747549
2023-03-04T07:37:47.178Z,9.747474
2023-03-04T07:38:47.279Z,9.747446
2023-03-04T07:39:47.204Z,9.747391
2023-03-04T07:40:47.197Z,9.747593
2023-03-04T07:41:47.180Z,9.747559
2023-03-04T07:42:47.173Z,9.747395
2023-03-04T07:43:47.201Z,9.747477
2023-03-04T07:44:47.127Z,9.747463
2023-03-04T07:45:47.157Z,9.747443
2023-03-04T07:46:47.162Z,9.747458
2023-03-04T07:47:47.122Z,9.747447
2023-03-04T07:48:47.168Z,9.747417
2023-03-04T07:49:47.234Z,9.747302
2023-03-04T07:50:47.083Z,9.747458
2023-03-04T07:51:47.144Z,9.747413
2023-03-04T07:52:47.101Z,9.747390
2023-03-04T07:53:47.096Z,9.747405
2023-03-04T07:54:47.053Z,9.747333
2023-03-04T07:55:47.048Z,9.747592
2023-03-04T07:56:47.062Z,9.747432
2023-03-04T07:57:47.016Z,9.747520
2023-03-04T07:58:47.101Z,9.747449
2023-03-04T07:59:47.074Z,9.747560
2023-03-04T08:00:47.105Z,9.747511
2023-03-04T08:01:47.009Z,9.747581
2023-03-04T08:02:47.033Z,9.747528
2023-03-04T08:03:48.124Z,9.747591
2023-03-04T08:04:47.004Z,9.747534
2023-03-04T08:05:47.005Z,9.747609
2023-03-04T08:06:46.955Z,9.747578
2023-03-04T08:07:46.983Z,9.747566
2023-03-04T08:08:46.996Z,9.747610
2023-03-04T08:09:47.022Z,9.747733
2023-03-04T08:10:46.940Z,9.747734
2023-03-04T08:11:46.920Z,9.747652
2023-03-04T08:12:46.909Z,9.747622
2023-03-04T08:13:46.933Z,9.747653
2023-03-04T08:14:46.980Z,9.747584
2023-03-04T08:15:46.986Z,9.747595
2023-03-04T08:16:46.906Z,9.747596
2023-03-04T08:17:46.978Z,9.747580
2023-03-04T08:18:46.895Z,9.747467
2023-03-04T08:19:46.937Z,9.747462
2023-03-04T08:20:46.961Z,9.747574
2023-03-04T08:21:46.842Z,9.747591
2023-03-04T08:22:46.898Z,9.747571
2023-03-04T08:23:46.938Z,9.747631
2023-03-04T08:24:46.828Z,9.747674
2023-03-04T08:25:46.836Z,9.747645
2023-03-04T08:26:46.813Z,9.747602
2023-03-04T08:27:47.797Z,9.747486
2023-03-04T08:28:46.816Z,9.747461
2023-03-04T08:29:46.786Z,9.747467
2023-03-04T08:30:46.785Z,9.747445
2023-03-04T08:31:48.779Z,9.747522
2023-03-04T08:32:47.977Z,9.747507
2023-03-04T08:33:46.831Z,9.747501
2023-03-04T08:34:46.782Z,9.747480
2023-03-04T08:35:46.799Z,9.747418
2023-03-04T08:36:46.758Z,9.747453
2023-03-04T08:37:46.739Z,9.747441
2023-03-04T08:38:46.788Z,9.747449
2023-03-04T08:39:46.707Z,9.747420
2023-03-04T08:40:46.713Z,9.747407
2023-03-04T08:41:46.744Z,9.747416
2023-03-04T08:42:46.688Z,9.747400
2023-03-04T08:43:46.700Z,9.747453
2023-03-04T08:44:46.704Z,9.747436
2023-03-04T08:45:46.721Z,9.747421
2023-03-04T08:46:46.678Z,9.747479
2023-03-04T08:47:46.653Z,9.747506
2023-03-04T08:48:46.758Z,9.747418
2023-03-04T08:49:46.637Z,9.747375
2023-03-04T08:50:46.634Z,9.747422
2023-03-04T08:51:46.624Z,9.747416
2023-03-04T08:52:46.615Z,9.747453
2023-03-04T08:53:46.645Z,9.747458
2023-03-04T08:54:46.686Z,9.747486
2023-03-04T08:55:46.630Z,9.747402
2023-03-04T08:56:46.593Z,9.747426
2023-03-04T08:57:46.590Z,9.747480
2023-03-04T08:58:46.608Z,9.747410
2023-03-04T08:59:46.556Z,9.747475
2023-03-04T09:00:46.575Z,9.747440
2023-03-04T09:01:46.654Z,9.747355
2023-03-04T09:02:46.552Z,9.747369
2023-03-04T09:03:46.705Z,9.747463
2023-03-04T09:04:46.537Z,9.747342
2023-03-04T09:05:46.523Z,9.747444
2023-03-04T09:06:46.564Z,9.747412
2023-03-04T09:07:46.540Z,9.747469
2023-03-04T09:08:46.484Z,9.747454
2023-03-04T09:09:46.538Z,9.747408
2023-03-04T09:10:46.480Z,9.747394
2023-03-04T09:11:46.458Z,9.747386
2023-03-04T09:12:46.451Z,9.747273
2023-03-04T09:13:46.542Z,9.747465
2023-03-04T09:14:46.441Z,9.747466
2023-03-04T09:15:46.474Z,9.747480
2023-03-04T09:16:46.444Z,9.747300
2023-03-04T09:17:46.429Z,9.747327
2023-03-04T09:18:46.427Z,9.747374
2023-03-04T09:19:46.462Z,9.747551
2023-03-04T09:20:46.461Z,9.747478
2023-03-04T09:21:46.391Z,9.747392
2023-03-04T09:22:46.417Z,9.747340
2023-03-04T09:23:46.426Z,9.747441
2023-03-04T09:24:46.395Z,9.747325
2023-03-04T09:25:46.350Z,9.747239
2023-03-04T09:26:46.414Z,9.747317
2023-03-04T09:27:46.497Z,9.747255
2023-03-04T09:28:46.364Z,9.747295
2023-03-04T09:29:46.381Z,9.747357
2023-03-04T09:30:46.318Z,9.747236
2023-03-04T09:31:46.404Z,9.747318
2023-03-04T09:32:46.305Z,9.747339
2023-03-04T09:33:46.320Z,9.747400
2023-03-04T09:34:46.388Z,9.747325
2023-03-04T09:35:46.349Z,9.747332
2023-03-04T09:36:46.282Z,9.747322
2023-03-04T09:37:46.351Z,9.747430
2023-03-04T09:38:46.382Z,9.747453
2023-03-04T09:39:46.300Z,9.747426
2023-03-04T09:40:46.335Z,9.747392
2023-03-04T09:41:46.261Z,9.747339
2023-03-04T09:42:47.445Z,9.747328
2023-03-04T09:43:47.296Z,9.747352
2023-03-04T09:44:46.250Z,9.747338
2023-03-04T09:45:46.256Z,9.747284
2023-03-04T09:46:46.284Z,9.747361
2023-03-04T09:47:46.251Z,9.747504
2023-03-04T09:48:46.211Z,9.747570
2023-03-04T09:49:46.214Z,9.747409
2023-03-04T09:50:46.330Z,9.747444
2023-03-04T09:51:46.203Z,9.747491
2023-03-04T09:52:46.183Z,9.747550
2023-03-04T09:53:46.186Z,9.747548
2023-03-04T09:54:46.248Z,9.747525
2023-03-04T09:55:46.205Z,9.747442
2023-03-04T09:56:46.143Z,9.747546
2023-03-04T09:57:46.166Z,9.747578
2023-03-04T09:58:46.165Z,9.747455
2023-03-04T09:59:46.167Z,9.747459
2023-03-04T10:00:46.143Z,9.747584
2023-03-04T10:01:46.125Z,9.747544
2023-03-04T10:02:46.131Z,9.747356
2023-03-04T10:03:46.106Z,9.747461
2023-03-04T10:04:46.175Z,9.747397
2023-03-04T10:05:46.101Z,9.747186
2023-03-04T10:06:46.090Z,9.747150
2023-03-04T10:07:46.174Z,9.747224
2023-03-04T10:08:46.041Z,9.747349
2023-03-04T10:09:46.069Z,9.747597
2023-03-04T10:10:46.059Z,9.747460
2023-03-04T10:11:46.033Z,9.747378
2023-03-04T10:12:46.042Z,9.747387
2023-03-04T10:13:46.031Z,9.747600
2023-03-04T10:14:46.026Z,9.747580
2023-03-04T10:15:46.022Z,9.747578
2023-03-04T10:16:45.981Z,9.747416
2023-03-04T10:17:46.032Z,9.747399
2023-03-04T10:18:45.981Z,9.747412
2023-03-04T10:19:46.021Z,9.747419
2023-03-04T10:20:46.006Z,9.747300
2023-03-04T10:21:45.951Z,9.747495
2023-03-04T10:22:45.946Z,9.747287
2023-03-04T10:23:45.922Z,9.747518
2023-03-04T10:24:45.972Z,9.747412
2023-03-04T10:25:45.913Z,9.747546
2023-03-04T10:26:45.920Z,9.747414
2023-03-04T10:27:45.893Z,9.747458
2023-03-04T10:28:45.916Z,9.747314
2023-03-04T10:29:48.725Z,9.747215
2023-03-04T10:30:45.873Z,9.747413
2023-03-04T10:31:45.943Z,9.747285
2023-03-04T10:32:45.856Z,9.747390
2023-03-04T10:33:45.847Z,9.747427
2023-03-04T10:34:45.929Z,9.747416
2023-03-04T10:35:45.869Z,9.747475
2023-03-04T10:36:45.828Z,9.747425
2023-03-04T10:37:45.853Z,9.747464
2023-03-04T10:38:45.871Z,9.747404
2023-03-04T10:39:45.876Z,9.747321
2023-03-04T10:40:46.075Z,9.747290
2023-03-04T10:41:46.892Z,9.747319
2023-03-04T10:42:45.861Z,9.747456
2023-03-04T10:43:45.784Z,9.747494
2023-03-04T10:44:45.785Z,9.747530
2023-03-04T10:45:45.862Z,9.747521
2023-03-04T10:46:45.804Z,9.747517
2023-03-04T10:47:45.864Z,9.747446
2023-03-04T10:48:45.786Z,9.747528
2023-03-04T10:49:45.738Z,9.747287
2023-03-04T10:50:45.712Z,9.747685
2023-03-04T10:51:45.743Z,9.747581
2023-03-04T10:52:45.701Z,9.747509
2023-03-04T10:53:45.692Z,9.747546
2023-03-04T10:54:45.757Z,9.747578
2023-03-04T10:55:45.714Z,9.747355
2023-03-04T10:56:45.722Z,9.747534
2023-03-04T10:57:45.657Z,9.747685
2023-03-04T10:58:45.635Z,9.747634
2023-03-04T10:59:45.673Z,9.747545
2023-03-04T11:00:45.640Z,9.747485
2023-03-04T11:01:45.683Z,9.747540
2023-03-04T11:02:45.616Z,9.747575
2023-03-04T11:03:45.618Z,9.747536
2023-03-04T11:04:45.617Z,9.747632
2023-03-04T11:05:45.651Z,9.747551
2023-03-04T11:06:45.602Z,9.747639
2023-03-04T11:07:55.197Z,9.747334
2023-03-04T11:08:47.635Z,9.747463
2023-03-04T11:09:45.632Z,9.747542
2023-03-04T11:10:45.635Z,9.747444
2023-03-04T11:11:45.557Z,9.747460
2023-03-04T11:12:45.532Z,9.747492
2023-03-04T11:13:45.537Z,9.747582
2023-03-04T11:14:45.557Z,9.747583
2023-03-04T11:15:45.517Z,9.747521
2023-03-04T11:16:45.519Z,9.747604
2023-03-04T11:17:45.512Z,9.747560
2023-03-04T11:18:45.558Z,9.747636
2023-03-04T11:19:45.490Z,9.747909
2023-03-04T11:20:45.531Z,9.747765
2023-03-04T11:21:45.464Z,9.747528
2023-03-04T11:22:45.489Z,9.747576
2023-03-04T11:23:45.579Z,9.747518
2023-03-04T11:24:45.463Z,9.747574
2023-03-04T11:25:45.461Z,9.747602
2023-03-04T11:26:45.523Z,9.747646
2023-03-04T11:27:45.469Z,9.747622
2023-03-04T11:28:45.411Z,9.747614
2023-03-04T11:29:45.420Z,9.747649
2023-03-04T11:30:45.491Z,9.747571
2023-03-04T11:31:45.467Z,9.747478
2023-03-04T11:32:45.458Z,9.747514
2023-03-04T11:33:45.380Z,9.747581
2023-03-04T11:34:45.380Z,9.747598
2023-03-04T11:35:45.527Z,9.747577
2023-03-04T11:36:45.365Z,9.747695
2023-03-04T11:37:45.347Z,9.747670
2023-03-04T11:38:45.384Z,9.747621
2023-03-04T11:39:45.378Z,9.747544
2023-03-04T11:40:45.414Z,9.747539
2023-03-04T11:41:45.366Z,9.747708
2023-03-04T11:42:45.338Z,9.747644
2023-03-04T11:43:45.371Z,9.747686
2023-03-04T11:44:45.329Z,9.747659